Osceola Municipal, IA

11:27 PM CDT on April 29, 2017 (GMT -0500)
Osceola Municipal

Weather History for KI75 - November, 2012

Change the Weather History Date:

Wednesday, November 21, 2012

  Actual Average (KCNC) Record (KCNC)
Temperature  
Mean Temperature 56 °F -  
Max Temperature 71 °F 47 °F 71 °F (2012)
Min Temperature 41 °F 24 °F 2 °F (1964)
Degree Days  
Heating Degree Days 9    
Growing Degree Days 6 (Base 50)    
Moisture  
Dew Point 38 °F    
Average Humidity 57    
Maximum Humidity 83    
Minimum Humidity 26    
Precipitation  
Precipitation 0.00 in - - ()
Sea Level Pressure  
Sea Level Pressure 30.07 in    
Wind  
Wind Speed 11 mph (South)    
Max Wind Speed 21 mph    
Max Gust Speed 26 mph    
Visibility 9 miles    
Events      
Averages and records for this station are not official NWS values.
T = Trace of Precipitation, MM = Missing Value Source: NWS Daily Summary

Daily Weather History Graph

Daily Weather History Graph

Search for Another Location

Airport or City:

Trip Planner

Search our weather history database for the weather conditions in past years. The results will help you decide how hot, cold, wet, or windy it might be!

Date:

Astronomy

Nov. 21, 2012 Rise Set
Actual Time 7:09 AM CST 4:51 PM CST
Civil Twilight 6:40 AM CST 5:21 PM CST
Nautical Twilight 6:06 AM CST 5:54 PM CST
Astronomical Twilight 5:33 AM CST 6:27 PM CST
Moon 1:10 PM CST (11/21) 12:26 AM CST (11/21)
Length of Visible Light 10h 41m
Length of Day
9h 41m
First Quarter, 62% of the Moon is Illuminated
Nov 21
First Quarter
Nov 28
Full
Dec 6
Last Quarter
Dec 13
New
Dec 19
First Quarter

Hourly Weather History & Observations

Time (CST) Temp. Windchill Dew Point Humidity Pressure Visibility Wind Dir Wind Speed Gust Speed Precip Events Conditions
12:15 AM 41.4 °F 36.8 °F 36.5 °F 83% 30.17 in 10.0 mi SSW 6.9 mph - N/A   Clear
12:35 AM 42.4 °F 37.5 °F 37.4 °F 82% 30.16 in 10.0 mi South 8.1 mph - N/A   Clear
12:55 AM 42.8 °F 38.6 °F 37.4 °F 81% 30.17 in 10.0 mi SSW 6.9 mph - N/A   Clear
1:15 AM 42.6 °F 38.4 °F 37.2 °F 81% 30.16 in 10.0 mi SSW 6.9 mph - N/A   Clear
1:35 AM 43.2 °F 38.4 °F 37.8 °F 81% 30.16 in 10.0 mi South 8.1 mph - N/A   Clear
1:55 AM 42.8 °F 38.6 °F 37.8 °F 82% 30.16 in 10.0 mi South 6.9 mph - N/A   Clear
2:15 AM 43.3 °F 39.9 °F 38.1 °F 82% 30.16 in 10.0 mi South 5.8 mph - N/A   Clear
2:35 AM 43.7 °F 39.1 °F 38.3 °F 81% 30.16 in 10.0 mi South 8.1 mph - N/A   Clear
2:55 AM 44.6 °F 39.2 °F 38.7 °F 80% 30.15 in 10.0 mi South 10.4 mph - N/A   Clear
3:15 AM 44.2 °F 38.8 °F 38.8 °F 81% 30.16 in 10.0 mi SSW 10.4 mph - N/A   Clear
3:35 AM 44.2 °F 38.8 °F 38.8 °F 81% 30.15 in 10.0 mi South 10.4 mph - N/A   Clear
3:55 AM 44.1 °F 38.6 °F 38.7 °F 81% 30.15 in 10.0 mi South 10.4 mph - N/A   Clear
4:15 AM 43.5 °F 37.9 °F 38.5 °F 82% 30.15 in 10.0 mi SSW 10.4 mph - N/A   Clear
4:35 AM 43.2 °F 37.4 °F 38.3 °F 83% 30.16 in 10.0 mi South 10.4 mph - N/A   Clear
4:55 AM 44.2 °F 38.8 °F 38.8 °F 81% 30.16 in 10.0 mi South 10.4 mph - N/A   Clear
5:15 AM 44.2 °F 38.8 °F 38.7 °F 81% 30.15 in 10.0 mi South 10.4 mph - N/A   Clear
5:35 AM 44.6 °F 39.2 °F 38.8 °F 80% 30.15 in 10.0 mi South 10.4 mph - N/A   Clear
5:55 AM 44.6 °F 39.2 °F 38.8 °F 80% 30.15 in 10.0 mi South 10.4 mph - N/A   Clear
6:15 AM 45.0 °F 39.3 °F 39.2 °F 80% 30.15 in 10.0 mi South 11.5 mph - N/A   Clear
6:35 AM 44.6 °F 38.8 °F 38.7 °F 80% 30.15 in 10.0 mi South 11.5 mph - N/A   Clear
6:55 AM 43.9 °F 38.3 °F 38.3 °F 81% 30.15 in 10.0 mi South 10.4 mph - N/A   Clear
7:15 AM 43.9 °F 37.9 °F 38.3 °F 81% 30.15 in 10.0 mi South 11.5 mph - N/A   Clear
7:35 AM 44.4 °F 38.6 °F 38.7 °F 80% 30.15 in 7.0 mi South 11.5 mph - N/A   Clear
7:55 AM 45.3 °F 39.7 °F 39.4 °F 80% 30.15 in 7.0 mi South 11.5 mph - N/A   Clear
8:15 AM 46.8 °F - 40.1 °F 78% 30.15 in 10.0 mi South 9.2 mph - N/A   Clear
8:35 AM 48.6 °F - 41.2 °F 76% 30.14 in 10.0 mi South 12.7 mph - N/A   Clear
8:55 AM 51.8 °F - 42.4 °F 70% 30.15 in 10.0 mi SSW 11.5 mph - N/A   Clear
9:15 AM 55.4 °F - 42.3 °F 61% 30.14 in 10.0 mi SSW 13.8 mph - N/A   Clear
9:35 AM 56.7 °F - 42.1 °F 58% 30.15 in 10.0 mi SSW 15.0 mph - N/A   Clear
9:55 AM 57.6 °F - 41.5 °F 55% 30.15 in 10.0 mi SSW 16.1 mph 19.6 mph N/A   Clear
10:15 AM 59.2 °F - 41.2 °F 51% 30.14 in 10.0 mi SSW 16.1 mph - N/A   Clear
10:35 AM 60.8 °F - 40.8 °F 48% 30.14 in 10.0 mi SSW 13.8 mph - N/A   Clear
10:55 AM 63.0 °F - 40.6 °F 44% 30.13 in 10.0 mi SW 15.0 mph 23.0 mph N/A   Clear
11:15 AM 64.9 °F - 39.9 °F 40% 30.12 in 10.0 mi SSW 15.0 mph 20.7 mph N/A   Clear
11:35 AM 66.4 °F - 39.2 °F 37% 30.11 in 7.0 mi SSW 15.0 mph 21.9 mph N/A   Clear
11:55 AM 68.0 °F - 37.4 °F 33% 30.10 in 7.0 mi SSW 16.1 mph - N/A   Clear
12:15 PM 69.8 °F - 36.3 °F 29% 30.09 in 10.0 mi SSW 16.1 mph 21.9 mph N/A   Clear
12:35 PM 70.0 °F - 33.8 °F 26% 30.08 in 7.0 mi SSW 20.7 mph - N/A   Clear
12:55 PM 70.7 °F - 34.9 °F 27% 30.07 in 7.0 mi SSW 19.6 mph 25.3 mph N/A   Clear
1:15 PM 70.9 °F - 35.8 °F 28% 30.06 in 7.0 mi SSW 17.3 mph 24.2 mph N/A   Clear
1:35 PM 70.7 °F - 35.8 °F 28% 30.05 in 7.0 mi SSW 13.8 mph - N/A   Clear
1:55 PM 71.6 °F - 36.7 °F 28% 30.04 in 7.0 mi SSW 19.6 mph 26.5 mph N/A   Clear
2:15 PM 71.8 °F - 36.9 °F 28% 30.03 in 10.0 mi South 17.3 mph 21.9 mph N/A   Clear
2:35 PM 71.2 °F - 35.4 °F 27% 30.02 in 7.0 mi South 19.6 mph 25.3 mph N/A   Clear
2:55 PM 70.9 °F - 35.4 °F 27% 30.01 in 10.0 mi South 15.0 mph 20.7 mph N/A   Clear
3:15 PM 70.7 °F - 34.9 °F 27% 30.01 in 7.0 mi South 17.3 mph - N/A   Clear
3:35 PM 70.3 °F - 35.6 °F 28% 30.00 in 7.0 mi South 17.3 mph 24.2 mph N/A   Clear
3:55 PM 69.1 °F - 35.8 °F 29% 30.00 in 7.0 mi South 13.8 mph 19.6 mph N/A   Clear
4:15 PM 67.8 °F - 35.6 °F 30% 30.00 in 7.0 mi South 9.2 mph - N/A   Clear
4:35 PM 66.2 °F - 35.8 °F 32% 29.99 in 10.0 mi South 12.7 mph - N/A   Clear
4:55 PM 64.6 °F - 35.8 °F 34% 29.99 in 7.0 mi South 10.4 mph - N/A   Clear
5:15 PM 61.7 °F - 38.1 °F 42% 29.98 in 10.0 mi SSE 10.4 mph - N/A   Clear
5:35 PM 61.0 °F - 38.8 °F 44% 29.98 in 10.0 mi SSE 11.5 mph - N/A   Clear
5:55 PM 59.9 °F - 38.8 °F 46% 29.98 in 10.0 mi SSE 10.4 mph - N/A   Clear
6:15 PM 58.3 °F - 39.2 °F 49% 29.97 in 10.0 mi SSE 11.5 mph - N/A   Clear
6:35 PM 58.5 °F - 39.2 °F 49% 29.97 in 10.0 mi SSE 11.5 mph - N/A   Clear
6:55 PM 58.1 °F - 39.2 °F 49% 29.96 in 10.0 mi South 12.7 mph - N/A   Clear
7:15 PM 58.8 °F - 38.7 °F 47% 29.96 in 10.0 mi South 12.7 mph - N/A   Clear
7:35 PM 59.4 °F - 38.5 °F 46% 29.97 in 10.0 mi South 17.3 mph 25.3 mph N/A   Clear
7:55 PM 59.4 °F - 38.3 °F 46% 29.97 in 10.0 mi South 16.1 mph - N/A   Clear
8:15 PM 58.6 °F - 38.7 °F 47% 29.97 in 10.0 mi South 16.1 mph 21.9 mph N/A   Clear
8:35 PM 57.4 °F - 39.4 °F 51% 29.98 in 10.0 mi South 12.7 mph - N/A   Clear
8:55 PM 56.3 °F - 39.6 °F 53% 29.98 in 10.0 mi South 11.5 mph - N/A   Clear
9:15 PM 56.5 °F - 39.6 °F 53% 29.98 in 10.0 mi South 10.4 mph - N/A   Clear
9:35 PM 55.4 °F - 39.6 °F 55% 29.97 in 10.0 mi South 11.5 mph - N/A   Clear
10:15 PM 54.5 °F - 39.6 °F 57% 29.95 in 10.0 mi SSE 11.5 mph - N/A   Clear
10:35 PM 54.9 °F - 39.4 °F 56% 29.94 in 10.0 mi South 12.7 mph - N/A   Clear
10:55 PM 55.0 °F - 39.2 °F 55% 29.94 in 10.0 mi South 15.0 mph 19.6 mph N/A   Clear
11:15 PM 55.6 °F - 39.2 °F 54% 29.93 in 10.0 mi South 15.0 mph - N/A   Clear
11:35 PM 55.6 °F - 39.2 °F 54% 29.93 in 10.0 mi South 18.4 mph 24.2 mph N/A   Clear
11:55 PM 55.6 °F - 39.2 °F 54% 29.92 in 10.0 mi South 16.1 mph 25.3 mph N/A   Clear